Portland Troutdale Airport
KTTD : now visible

Airfield :











YOU CAN JOIN US ON...

 
LOGIN :

Register | Disclaimer

   EN    FR    IT 

 









Legend :    VFR   Marginal VFR   IFR   Intensive IFR   Very Intensive IFR
Visi :
Ceiling :
>= 8 km
>= 3000ft
5 to 8 km
1000 to 3000 ft
1500m to 5 km
500 to 1000 ft
800 to 1500m
200 to 500 ft
< 800m
< 200 ft
Symbols :   Thunderstorms  Fog  Heavy snow  Heavy precipitations  Wind > 20 kt






- Airport Elevation : 39 ft


KTTD - Portland Troutdale

CURRENT METAR :
  • 171153Z AUTO 26004KT 10SM BKN033 BKN070 OVC120 06/03 A3038 RMK AO2 RAE17B21E30 SLP287 P0001 60001 70002 T00560028 10067 20050 51008

EXPIRED METARs :
  • 171134Z AUTO 26006KT 10SM FEW026 BKN055 OVC120 06/03 A3038 RMK AO2 RAE17B21E30 P0001 T00560028
  • 171117Z AUTO 27003KT 10SM FEW013 BKN029 OVC042 06/03 A3038 RMK AO2 RAE17 P0001 T00560028
  • 171053Z AUTO 31004KT 10SM -RA OVC032 06/03 A3037 RMK AO2 RAB28 SLP284 P0000 T00610028
  • 170953Z AUTO 00000KT 10SM SCT049 BKN060 OVC110 06/02 A3037 RMK AO2 SLP282 T00560022

TAF KTTD
Valid from the 17 at 12:00 until the 18 at 12:00 UTC


171134Z 1712/1812 27003KT P6SM VCSH FEW015 BKN025 OVC040
FM171400 VRB02KT 3SM BR SCT003 BKN020 BKN035
FM171900 VRB04KT P6SM SCT020 BKN060
FM180100 VRB02KT P6SM SCT030 BKN250
FM181000 08003KT P6SM SCT025 BKN100



MET'MAP, your aeronautical weather chart ! - Copyright ORBIFLY December 2007 - Disclaimer

ORBIFLY MET'MAP TEAM :

Programming & Development : Alexandra Zaïnal
Concept & original design : Baudouin d'Aumeries
Assistance for programming : Marc-Olivier Méhu
Technical & hardware support : Manuel Goepfert

Contact : metmap@orbifly.com




SOURCES & CREDITS :

   NOAA       Earth
Advisory